| time (UTC) | temp F | wind direction | speed MPH | gust MPH | rain 1hr in | rain 24hr in | rain mn in | humidity % | barometer mb |
| 20260906124252 | 72 | 203 | 2.0 | 3.0 | 0.00 | 0.00 | 0.00 | 89 | 1019.4 |
| 20260906123254 | 72 | 208 | 2.0 | 5.0 | 0.00 | 0.00 | 0.00 | 89 | 1019.2 |
| 20260906122316 | 72 | 225 | 3.0 | 7.0 | 0.00 | 0.00 | 0.00 | 89 | 1019.1 |
| 20260906121258 | 72 | 208 | 1.0 | 2.0 | 0.00 | 0.00 | 0.00 | 90 | 1019.1 |
| 20260906120300 | 72 | 183 | 5.0 | 7.0 | 0.00 | 0.00 | 0.00 | 89 | 1019.1 |
| 20260906115322 | 72 | 126 | 3.0 | 5.0 | 0.00 | 0.00 | 0.00 | 89 | 1019.0 |
| 20260906114245 | 72 | 0.0 | 0.0 | 0.00 | 0.00 | 0.00 | 89 | 1018.9 | |
| 20260906113307 | 71 | 152 | 3.0 | 4.0 | 0.00 | 0.00 | 0.00 | 89 | 1018.6 |
| 20260906112249 | 71 | 183 | 2.0 | 3.0 | 0.00 | 0.00 | 0.00 | 89 | 1018.4 |
| 20260906111251 | 71 | 203 | 4.0 | 5.0 | 0.00 | 0.00 | 0.00 | 89 | 1018.2 |
| 20260906110328 | 72 | 168 | 2.0 | 4.0 | 0.00 | 0.00 | 0.00 | 88 | 1018.2 |
| 20260906105316 | 72 | 169 | 2.0 | 3.0 | 0.00 | 0.00 | 0.00 | 88 | 1018.1 |
| 20260906104258 | 72 | 178 | 4.0 | 4.0 | 0.00 | 0.00 | 0.00 | 88 | 1018.1 |
| 20260906103300 | 73 | 162 | 1.0 | 4.0 | 0.00 | 0.00 | 0.00 | 87 | 1018.0 |
| 20260906102305 | 73 | 166 | 3.0 | 5.0 | 0.00 | 0.00 | 0.00 | 87 | 1018.0 |
| 20260906101246 | 73 | 181 | 2.0 | 5.0 | 0.00 | 0.00 | 0.00 | 87 | 1018.0 |
| 20260906100309 | 73 | 158 | 3.0 | 3.0 | 0.00 | 0.00 | 0.00 | 87 | 1017.9 |
| 20260906095250 | 73 | 169 | 3.0 | 4.0 | 0.00 | 0.00 | 0.00 | 86 | 1017.9 |
| 20260906094253 | 74 | 158 | 1.0 | 4.0 | 0.00 | 0.00 | 0.00 | 86 | 1017.7 |
| 20260906093255 | 74 | 244 | 3.0 | 5.0 | 0.00 | 0.00 | 0.00 | 85 | 1017.6 |
| 20260906092257 | 74 | 238 | 1.0 | 4.0 | 0.00 | 0.00 | 0.00 | 85 | 1017.4 |
| 20260906091319 | 75 | 0.0 | 0.0 | 0.00 | 0.00 | 0.00 | 85 | 1017.6 | |
| 20260906090301 | 75 | 214 | 2.0 | 3.0 | 0.00 | 0.00 | 0.00 | 85 | 1017.6 |
| 20260906085307 | 76 | 155 | 4.0 | 7.0 | 0.00 | 0.00 | 0.00 | 84 | 1017.5 |
| 20260906084248 | 76 | 190 | 3.0 | 5.0 | 0.00 | 0.00 | 0.00 | 84 | 1017.6 |
| 20260906083250 | 77 | 0.0 | 0.0 | 0.00 | 0.00 | 0.00 | 84 | 1017.4 | |
| 20260906082246 | 77 | 208 | 2.0 | 4.0 | 0.00 | 0.00 | 0.00 | 83 | 1017.4 |
| 20260906081254 | 77 | 175 | 2.0 | 4.0 | 0.00 | 0.00 | 0.00 | 83 | 1017.4 |
| 20260906080256 | 78 | 171 | 3.0 | 4.0 | 0.00 | 0.00 | 0.00 | 83 | 1017.4 |
| 20260906075258 | 78 | 180 | 1.0 | 3.0 | 0.00 | 0.00 | 0.00 | 81 | 1017.4 |
| 20260906074301 | 78 | 160 | 3.0 | 4.0 | 0.00 | 0.00 | 0.00 | 80 | 1017.4 |
| 20260906073307 | 79 | 143 | 2.0 | 5.0 | 0.00 | 0.00 | 0.00 | 80 | 1017.4 |
| 20260906072247 | 79 | 261 | 2.0 | 4.0 | 0.00 | 0.00 | 0.00 | 80 | 1017.4 |
| 20260906071309 | 79 | 241 | 2.0 | 5.0 | 0.00 | 0.00 | 0.00 | 80 | 1017.4 |
| 20260906070332 | 79 | 0.0 | 0.0 | 0.00 | 0.00 | 0.00 | 80 | 1017.4 | |
| 20260906065253 | 79 | 0.0 | 0.0 | 0.00 | 0.00 | 0.00 | 80 | 1017.5 | |
| 20260906064255 | 80 | 225 | 0.0 | 1.0 | 0.00 | 0.00 | 0.00 | 80 | 1017.4 |
| 20260906063257 | 80 | 90 | 0.0 | 2.0 | 0.00 | 0.00 | 0.00 | 80 | 1017.4 |
| 20260906062300 | 80 | 293 | 0.0 | 1.0 | 0.00 | 0.00 | 0.00 | 80 | 1017.4 |
| 20260906061316 | 81 | 261 | 1.0 | 4.0 | 0.00 | 0.00 | 0.00 | 80 | 1017.4 |
| 20260906060246 | 81 | 180 | 1.0 | 3.0 | 0.00 | 0.00 | 0.00 | 80 | 1017.4 |
| 20260906055328 | 81 | 256 | 3.0 | 5.0 | 0.00 | 0.00 | 0.00 | 80 | 1017.2 |
| 20260906054250 | 82 | 203 | 1.0 | 2.0 | 0.00 | 0.00 | 0.00 | 80 | 1017.4 |
| 20260906053249 | 82 | 232 | 2.0 | 3.0 | 0.00 | 0.00 | 0.00 | 80 | 1017.4 |
| 20260906052309 | 82 | 0.0 | 0.0 | 0.00 | 0.00 | 0.00 | 80 | 1017.2 | |
| 20260906051250 | 83 | 315 | 1.0 | 2.0 | 0.00 | 0.00 | 0.00 | 79 | 1017.1 |
| 20260906050252 | 83 | 250 | 4.0 | 7.0 | 0.00 | 0.00 | 0.00 | 79 | 1017.0 |
| 20260906045255 | 84 | 237 | 2.0 | 4.0 | 0.00 | 0.00 | 0.00 | 78 | 1016.9 |
| 20260906044256 | 84 | 0.0 | 0.0 | 0.00 | 0.00 | 0.00 | 77 | 1016.9 | |
| 20260906043259 | 84 | 237 | 2.0 | 4.0 | 0.00 | 0.00 | 0.00 | 77 | 1016.7 |
| 20260906042321 | 84 | 270 | 0.0 | 2.0 | 0.00 | 0.00 | 0.00 | 76 | 1016.7 |
| 20260906041303 | 85 | 203 | 2.0 | 3.0 | 0.00 | 0.00 | 0.00 | 76 | 1016.5 |
| 20260906040307 | 85 | 210 | 2.0 | 5.0 | 0.00 | 0.00 | 0.00 | 75 | 1016.5 |
| 20260906035249 | 85 | 237 | 3.0 | 6.0 | 0.00 | 0.00 | 0.00 | 75 | 1016.5 |
| 20260906034252 | 85 | 180 | 1.0 | 3.0 | 0.00 | 0.00 | 0.00 | 74 | 1016.4 |
| 20260906033253 | 86 | 201 | 3.0 | 5.0 | 0.00 | 0.00 | 0.00 | 74 | 1016.2 |
| 20260906032249 | 86 | 164 | 1.0 | 2.0 | 0.00 | 0.00 | 0.00 | 73 | 1016.2 |
| 20260906031245 | 86 | 336 | 1.0 | 3.0 | 0.00 | 0.00 | 0.00 | 73 | 1016.2 |
| 20260906030259 | 86 | 189 | 3.0 | 5.0 | 0.00 | 0.00 | 0.00 | 72 | 1016.1 |
| 20260906025301 | 87 | 197 | 3.0 | 5.0 | 0.00 | 0.00 | 0.00 | 71 | 1016.0 |
| 20260906024306 | 87 | 168 | 2.0 | 5.0 | 0.00 | 0.00 | 0.00 | 71 | 1015.9 |
| 20260906023247 | 87 | 257 | 2.0 | 5.0 | 0.00 | 0.00 | 0.00 | 70 | 1015.7 |
| 20260906022310 | 87 | 212 | 3.0 | 5.0 | 0.00 | 0.00 | 0.00 | 69 | 1015.6 |
| 20260906021251 | 87 | 2.0 | 2.0 | 0.00 | 0.00 | 0.00 | 68 | 1015.5 | |
| 20260906020253 | 87 | 197 | 3.0 | 5.0 | 0.00 | 0.00 | 0.00 | 66 | 1015.4 |
| 20260906015336 | 87 | 180 | 2.0 | 2.0 | 0.00 | 0.00 | 0.00 | 64 | 1015.3 |
| 20260906014317 | 87 | 139 | 2.0 | 3.0 | 0.00 | 0.00 | 0.00 | 63 | 1015.1 |
| 20260906013259 | 0 | 0.0 | 0.0 | 0.00 | 0.00 | 0.00 | 1015.0 | ||
| 20260906012301 | 0 | 0.0 | 0.0 | 0.00 | 0.00 | 0.00 | 1014.9 | ||
| 20260906011245 | 88 | 189 | 2.0 | 2.0 | 0.00 | 0.00 | 0.00 | 62 | 1014.8 |
| 20260906010247 | 88 | 158 | 1.0 | 2.0 | 0.00 | 0.00 | 0.00 | 61 | 1014.7 |
| 20260906005250 | 89 | 218 | 2.0 | 3.0 | 0.00 | 0.00 | 0.00 | 60 | 1014.6 |
| 20260906004306 | 89 | 164 | 2.0 | 2.0 | 0.00 | 0.00 | 0.00 | 58 | 1014.6 |
| 20260906003253 | 91 | 154 | 2.0 | 3.0 | 0.00 | 0.00 | 0.00 | 58 | 1014.6 |
| 20260906002255 | 92 | 186 | 1.0 | 2.0 | 0.00 | 0.00 | 0.00 | 55 | 1014.6 |
| 20260906001257 | 92 | 203 | 0.0 | 1.0 | 0.00 | 7.38 | 0.00 | 52 | 1014.6 |
| 20260906000320 | 93 | 0.0 | 0.0 | 0.00 | 7.38 | 0.00 | 52 | 1014.6 | |
| 20260905235306 | 93 | 254 | 1.0 | 2.0 | 0.00 | 7.38 | 0.00 | 52 | 1014.6 |
| 20260905234246 | 93 | 270 | 1.0 | 3.0 | 0.00 | 7.38 | 0.00 | 54 | 1014.6 |
| 20260905233304 | 92 | 232 | 1.0 | 1.0 | 0.00 | 7.38 | 0.00 | 55 | 1014.5 |
| 20260905232305 | 93 | 289 | 2.0 | 4.0 | 0.00 | 7.38 | 0.00 | 54 | 1014.6 |
| 20260905231246 | 94 | 0.0 | 0.0 | 0.00 | 7.38 | 0.00 | 46 | 1014.6 | |
| 20260905230248 | 94 | 0.0 | 0.0 | 0.00 | 7.38 | 0.00 | 46 | 1014.7 | |
| 20260905225251 | 94 | 236 | 1.0 | 1.0 | 0.00 | 7.38 | 0.00 | 47 | 1014.8 |
| 20260905224253 | 92 | 203 | 4.0 | 7.0 | 0.00 | 7.38 | 0.00 | 54 | 1014.9 |
| 20260905223255 | 96 | 192 | 3.0 | 4.0 | 0.00 | 7.38 | 0.00 | 50 | 1014.8 |
| 20260905222251 | 0 | 0.0 | 0.0 | 0.00 | 7.38 | 0.00 | 1014.6 | ||
| 20260905221308 | 98 | 338 | 4.0 | 5.0 | 0.00 | 7.38 | 0.00 | 45 | 1014.5 |
| 20260905220301 | 99 | 140 | 2.0 | 4.0 | 0.00 | 7.38 | 0.00 | 43 | 1014.5 |
| 20260905215246 | 100 | 94 | 5.0 | 7.0 | 0.00 | 7.38 | 0.00 | 43 | 1014.4 |
| 20260905214248 | 101 | 150 | 5.0 | 6.0 | 0.00 | 7.38 | 0.00 | 40 | 1014.3 |
| 20260905213250 | 100 | 135 | 4.0 | 5.0 | 0.00 | 7.38 | 0.00 | 45 | 1014.4 |
| 20260905212313 | 100 | 187 | 7.0 | 8.0 | 0.00 | 7.38 | 0.00 | 45 | 1014.4 |
| 20260905211255 | 101 | 165 | 6.0 | 8.0 | 0.00 | 7.38 | 0.00 | 42 | 1014.6 |
| 20260905210257 | 104 | 148 | 6.0 | 8.0 | 0.00 | 7.38 | 0.00 | 40 | 1014.6 |
| 20260905205319 | 104 | 203 | 5.0 | 7.0 | 0.00 | 7.38 | 0.00 | 40 | 1014.6 |
| 20260905204301 | 103 | 175 | 6.0 | 7.0 | 0.00 | 7.38 | 0.00 | 41 | 1014.8 |
| 20260905203245 | 102 | 171 | 6.0 | 10.0 | 0.00 | 7.38 | 0.00 | 41 | 1014.8 |
| 20260905202247 | 102 | 150 | 3.0 | 6.0 | 0.00 | 7.38 | 0.00 | 41 | 1014.8 |
| 20260905201249 | 103 | 145 | 4.0 | 7.0 | 0.00 | 7.38 | 0.00 | 40 | 1014.9 |
| 20260905200251 | 104 | 131 | 4.0 | 5.0 | 0.00 | 7.38 | 0.00 | 39 | 1014.9 |
| 20260905195254 | 106 | 71 | 5.0 | 8.0 | 0.00 | 7.38 | 0.00 | 38 | 1014.9 |
| 20260905194250 | 105 | 2.0 | 4.0 | 0.00 | 7.38 | 0.00 | 41 | 1015.1 | |
| 20260905193246 | 0 | 123 | 5.0 | 6.0 | 0.00 | 7.38 | 0.00 | 1015.3 | |
| 20260905192340 | 103 | 92 | 5.0 | 7.0 | 0.00 | 7.38 | 0.00 | 42 | 1015.6 |
| 20260905191342 | 0 | 0.0 | 0.0 | 0.00 | 7.38 | 0.00 | 1015.7 | ||
| 20260905190249 | 104 | 75 | 5.0 | 6.0 | 0.00 | 7.38 | 0.00 | 40 | 1015.6 |
| 20260905185248 | 0 | 108 | 4.0 | 5.0 | 0.00 | 7.38 | 0.00 | 1015.6 | |
| 20260905184250 | 0 | 68 | 6.0 | 6.0 | 0.00 | 7.38 | 0.00 | 1016.1 | |
| 20260905183253 | 0 | 106 | 6.0 | 6.0 | 0.00 | 7.38 | 0.00 | 1016.1 | |
| 20260905182255 | 103 | 91 | 5.0 | 6.0 | 0.00 | 7.38 | 0.00 | 45 | 1016.4 |
| 20260905181257 | 101 | 22 | 2.0 | 4.0 | 0.00 | 7.38 | 0.00 | 48 | 1016.4 |
| 20260905180258 | 102 | 102 | 5.0 | 6.0 | 0.00 | 7.38 | 0.00 | 48 | 1016.4 |
| 20260905175301 | 0 | 158 | 2.0 | 2.0 | 0.00 | 7.38 | 0.00 | 1016.4 | |
| 20260905174245 | 0 | 0.0 | 0.0 | 0.00 | 7.38 | 0.00 | 1016.4 | ||
| 20260905173247 | 100 | 121 | 3.0 | 4.0 | 0.00 | 7.38 | 0.00 | 51 | 1016.4 |
| 20260905172330 | 99 | 169 | 2.0 | 3.0 | 0.00 | 7.38 | 0.00 | 52 | 1016.7 |
| 20260905171251 | 99 | 58 | 3.0 | 4.0 | 0.00 | 7.38 | 0.00 | 52 | 1016.7 |
| 20260905170248 | 99 | 343 | 2.0 | 3.0 | 0.00 | 7.38 | 0.00 | 53 | 1016.8 |
| 20260905165256 | 98 | 57 | 5.0 | 6.0 | 0.00 | 7.38 | 0.00 | 54 | 1016.9 |
| 20260905164258 | 97 | 203 | 1.0 | 2.0 | 0.00 | 7.38 | 0.00 | 55 | 1017.1 |
| 20260905163301 | 96 | 101 | 4.0 | 6.0 | 0.00 | 7.38 | 0.00 | 56 | 1017.2 |
| 20260905162322 | 96 | 98 | 3.0 | 4.0 | 0.00 | 7.38 | 0.00 | 56 | 1017.2 |
| 20260905161246 | 96 | 81 | 4.0 | 5.0 | 0.00 | 7.38 | 0.00 | 56 | 1017.4 |
| 20260905160249 | 95 | 135 | 2.0 | 3.0 | 0.00 | 7.38 | 0.00 | 57 | 1017.4 |
| 20260905155331 | 94 | 90 | 2.0 | 2.0 | 0.00 | 7.38 | 0.00 | 59 | 1017.4 |
| 20260905154255 | 94 | 82 | 3.0 | 4.0 | 0.00 | 7.38 | 0.00 | 59 | 1017.4 |
| 20260905153255 | 94 | 80 | 4.0 | 5.0 | 0.00 | 7.38 | 0.00 | 58 | 1017.4 |
| 20260905152257 | 93 | 90 | 3.0 | 5.0 | 0.00 | 7.38 | 0.00 | 60 | 1017.4 |
| 20260905151300 | 92 | 103 | 2.0 | 3.0 | 0.00 | 7.38 | 0.00 | 60 | 1017.4 |
| 20260905150302 | 91 | 53 | 4.0 | 5.0 | 0.00 | 7.38 | 0.00 | 62 | 1017.4 |
| 20260905145246 | 91 | 45 | 4.0 | 5.0 | 0.00 | 7.38 | 0.00 | 63 | 1017.2 |
| 20260905144248 | 90 | 60 | 3.0 | 5.0 | 0.00 | 7.38 | 0.00 | 64 | 1017.2 |
| 20260905143310 | 89 | 111 | 3.0 | 4.0 | 0.00 | 7.38 | 0.00 | 66 | 1017.2 |
| 20260905142246 | 88 | 81 | 1.0 | 3.0 | 0.00 | 7.38 | 0.00 | 69 | 1017.4 |
| 20260905141254 | 87 | 32 | 3.0 | 4.0 | 0.00 | 7.38 | 0.00 | 71 | 1017.4 |
| 20260905140256 | 86 | 61 | 1.0 | 2.0 | 0.00 | 7.38 | 0.00 | 71 | 1017.3 |
| 20260905135258 | 86 | 74 | 2.0 | 3.0 | 0.00 | 7.38 | 0.00 | 71 | 1017.2 |
| 20260905134302 | 85 | 45 | 0.0 | 2.0 | 0.00 | 7.38 | 0.00 | 72 | 1017.2 |
| 20260905133301 | 85 | 0.0 | 0.0 | 0.00 | 7.38 | 0.00 | 72 | 1017.1 | |
| 20260905132246 | 86 | 0.0 | 0.0 | 0.00 | 7.38 | 0.00 | 70 | 1017.2 | |
| 20260905131248 | 86 | 0.0 | 0.0 | 0.00 | 7.38 | 0.00 | 72 | 1017.1 | |
| 20260905130250 | 86 | 0.0 | 0.0 | 0.00 | 7.38 | 0.00 | 72 | 1017.0 | |
| 20260905125253 | 86 | 0.0 | 0.0 | 0.00 | 7.38 | 0.00 | 72 | 1017.0 |